createdAt,value
2023-04-19T00:04:22.588Z,94.68
2023-04-19T00:09:22.118Z,94.37
2023-04-19T00:14:22.036Z,93.55
2023-04-19T00:19:21.973Z,93.96
2023-04-19T00:24:21.896Z,94.48
2023-04-19T00:29:21.841Z,94.58
2023-04-19T00:34:21.806Z,93.66
2023-04-19T00:39:21.696Z,92.68
2023-04-19T00:44:21.663Z,92.57
2023-04-19T00:49:21.579Z,91.09
2023-04-19T00:54:21.512Z,91.91
2023-04-19T00:59:21.432Z,92.32
2023-04-19T01:04:21.430Z,92.32
2023-04-19T01:09:21.322Z,91.40
2023-04-19T01:14:21.248Z,91.14
2023-04-19T01:19:21.183Z,92.16
2023-04-19T01:24:21.118Z,90.77
2023-04-19T01:29:21.048Z,91.14
2023-04-19T01:34:20.980Z,90.52
2023-04-19T01:39:20.918Z,91.55
2023-04-19T01:44:20.876Z,91.91
2023-04-19T01:49:20.806Z,90.11
2023-04-19T01:54:20.733Z,90.93
2023-04-19T01:59:20.675Z,89.56
2023-04-19T02:04:20.661Z,90.56
2023-04-19T02:09:20.540Z,90.46
2023-04-19T02:14:20.472Z,90.87
2023-04-19T02:19:20.452Z,90.40
2023-04-19T02:24:20.414Z,91.12
2023-04-19T02:29:20.332Z,91.67
2023-04-19T02:34:20.275Z,91.47
2023-04-19T02:39:20.217Z,92.46
2023-04-19T02:44:20.127Z,90.91
2023-04-19T02:49:20.075Z,91.47
2023-04-19T02:54:19.991Z,91.27
2023-04-19T02:59:19.931Z,91.88
2023-04-19T03:04:19.920Z,93.12
2023-04-19T03:09:19.810Z,91.16
2023-04-19T03:14:19.712Z,90.95
2023-04-19T03:19:19.660Z,91.61
2023-04-19T03:24:19.593Z,91.31
2023-04-19T03:29:19.521Z,91.82
2023-04-19T03:34:19.438Z,91.72
2023-04-19T03:39:19.389Z,91.51
2023-04-19T03:44:19.310Z,91.97
2023-04-19T03:49:19.253Z,91.55
2023-04-19T03:54:19.168Z,91.76
2023-04-19T03:59:19.152Z,92.11
2023-04-19T04:04:19.463Z,91.60
2023-04-19T04:09:18.984Z,91.60
2023-04-19T04:14:19.450Z,91.49
2023-04-19T04:19:18.869Z,92.93
2023-04-19T04:24:18.793Z,90.88
2023-04-19T04:29:18.721Z,90.00
2023-04-19T04:34:18.644Z,89.03
2023-04-19T04:39:18.560Z,88.51
2023-04-19T04:44:18.492Z,88.10
2023-04-19T04:49:18.443Z,86.29
2023-04-19T04:54:18.360Z,84.44
2023-04-19T04:59:18.304Z,86.15
2023-04-19T05:04:18.513Z,86.79
2023-04-19T05:09:18.172Z,76.75
2023-04-19T05:14:18.122Z,71.02
2023-04-19T05:19:18.057Z,66.46
2023-04-19T05:24:18.311Z,70.81
2023-04-19T05:29:17.911Z,67.87
2023-04-19T05:34:19.708Z,70.97
2023-04-19T05:39:17.798Z,69.91
2023-04-19T05:44:18.039Z,72.17
2023-04-19T05:49:17.684Z,69.49
2023-04-19T05:54:17.908Z,68.85
2023-04-19T05:59:17.665Z,66.45
2023-04-19T06:04:18.023Z,62.88
2023-04-19T06:09:17.475Z,62.40
2023-04-19T06:14:17.928Z,67.79
2023-04-19T06:19:17.275Z,61.64
2023-04-19T06:24:17.372Z,61.79
2023-04-19T06:29:17.153Z,57.38
2023-04-19T06:34:17.420Z,60.28
2023-04-19T06:39:17.034Z,59.05
2023-04-19T06:44:17.369Z,60.57
2023-04-19T06:49:16.908Z,59.38
2023-04-19T06:54:17.310Z,56.76
2023-04-19T06:59:16.780Z,52.88
2023-04-19T07:04:17.241Z,53.39
2023-04-19T07:09:16.639Z,46.40
2023-04-19T07:14:16.746Z,46.81
2023-04-19T07:19:16.566Z,48.90
2023-04-19T07:24:16.614Z,47.05
2023-04-19T07:29:16.410Z,49.61
2023-04-19T07:34:16.467Z,44.89
2023-04-19T07:39:16.282Z,44.66
2023-04-19T07:44:16.504Z,48.61
2023-04-19T07:49:16.120Z,45.75
2023-04-19T07:54:16.234Z,48.87
2023-04-19T07:59:16.022Z,49.68
2023-04-19T08:04:16.508Z,49.51
2023-04-19T08:09:15.925Z,48.93
2023-04-19T08:14:28.385Z,50.65
2023-04-19T08:19:16.758Z,52.84
2023-04-19T08:24:15.911Z,48.24
2023-04-19T08:29:15.837Z,53.27
2023-04-19T08:34:15.548Z,49.81
2023-04-19T08:39:29.038Z,53.16
2023-04-19T08:44:25.332Z,54.16
2023-04-19T08:49:16.562Z,51.74
2023-04-19T08:54:15.266Z,52.35
2023-04-19T08:59:18.470Z,55.56
2023-04-19T09:04:31.824Z,58.67
2023-04-19T09:09:33.400Z,56.07
2023-04-19T09:14:16.047Z,56.40
2023-04-19T09:19:23.375Z,55.87
2023-04-19T09:24:15.886Z,55.51
2023-04-19T09:29:15.241Z,55.41
2023-04-19T09:34:14.832Z,55.10
2023-04-19T09:39:15.391Z,55.68
2023-04-19T09:49:23.140Z,53.85
2023-04-19T09:54:15.523Z,56.07
2023-04-19T09:59:20.858Z,56.07
2023-04-19T10:09:14.921Z,56.04
2023-04-19T10:14:14.645Z,55.66
2023-04-19T10:19:14.339Z,53.50
2023-04-19T10:24:14.077Z,54.44
2023-04-19T10:29:14.181Z,53.78
2023-04-19T10:34:14.187Z,52.73
2023-04-19T10:39:14.105Z,54.36
2023-04-19T10:44:13.826Z,52.10
2023-04-19T10:49:13.935Z,56.45
2023-04-19T10:54:13.713Z,53.47
2023-04-19T10:59:13.728Z,54.64
2023-04-19T11:04:13.732Z,55.61
2023-04-19T11:09:13.552Z,54.03
2023-04-19T11:14:13.436Z,52.73
2023-04-19T11:19:13.545Z,53.52
2023-04-19T11:24:13.301Z,51.23
2023-04-19T11:29:13.343Z,50.67
2023-04-19T11:34:13.514Z,52.17
2023-04-19T11:39:13.072Z,53.29
2023-04-19T11:44:13.001Z,54.26
2023-04-19T11:49:12.921Z,54.69
2023-04-19T11:54:13.239Z,54.11
2023-04-19T11:59:12.777Z,55.97
2023-04-19T12:04:13.013Z,53.52
2023-04-19T12:09:12.713Z,50.29
2023-04-19T12:14:12.624Z,52.86
2023-04-19T12:19:12.550Z,52.00
2023-04-19T12:24:12.512Z,51.95
2023-04-19T12:29:12.409Z,52.20
2023-04-19T12:34:12.337Z,52.45
2023-04-19T12:39:12.270Z,53.59
2023-04-19T12:44:12.199Z,51.89
2023-04-19T12:49:12.161Z,54.82
2023-04-19T12:54:12.107Z,51.56
2023-04-19T12:59:12.015Z,51.77
2023-04-19T13:04:13.646Z,53.14
2023-04-19T13:09:14.900Z,54.28
2023-04-19T13:14:11.818Z,53.29
2023-04-19T13:19:11.779Z,53.14
2023-04-19T13:24:11.683Z,50.81
2023-04-19T13:29:11.622Z,50.98
2023-04-19T13:34:11.552Z,54.26
2023-04-19T13:39:11.537Z,51.48
2023-04-19T13:44:11.404Z,57.19
2023-04-19T13:49:11.369Z,59.84
2023-04-19T13:54:11.285Z,60.28
2023-04-19T13:59:11.260Z,61.27
2023-04-19T14:04:11.431Z,59.81
2023-04-19T14:09:11.125Z,63.19
2023-04-19T14:14:11.025Z,64.56
2023-04-19T14:19:10.985Z,67.30
2023-04-19T14:24:10.890Z,69.34
2023-04-19T14:29:10.871Z,73.16
2023-04-19T14:34:10.785Z,72.52
2023-04-19T14:39:10.763Z,76.78
2023-04-19T14:44:10.652Z,76.34
2023-04-19T14:49:10.652Z,72.28
2023-04-19T14:54:10.532Z,72.31
2023-04-19T14:59:10.456Z,72.38
2023-04-19T15:04:10.653Z,72.34
2023-04-19T15:09:10.390Z,76.10
2023-04-19T15:14:10.250Z,75.62
2023-04-19T15:19:10.200Z,74.63
2023-04-19T15:24:10.144Z,75.59
2023-04-19T15:29:10.086Z,76.31
2023-04-19T15:34:09.983Z,75.70
2023-04-19T15:39:09.909Z,75.70
2023-04-19T15:44:09.843Z,75.97
2023-04-19T15:49:09.778Z,77.48
2023-04-19T15:54:09.697Z,77.68
2023-04-19T15:59:09.670Z,79.36
2023-04-19T16:04:09.725Z,79.94
2023-04-19T16:09:09.518Z,78.78
2023-04-19T16:14:09.420Z,79.53
2023-04-19T16:19:09.366Z,78.96
2023-04-19T16:24:09.288Z,79.36
2023-04-19T16:29:09.234Z,78.75
2023-04-19T16:34:09.155Z,81.21
2023-04-19T16:39:09.083Z,80.22
2023-04-19T16:44:09.080Z,79.71
2023-04-19T16:49:09.015Z,78.61
2023-04-19T16:54:08.925Z,79.98
2023-04-19T16:59:08.896Z,81.19
2023-04-19T17:04:08.931Z,83.39
2023-04-19T17:09:08.730Z,84.66
2023-04-19T17:14:08.643Z,84.54
2023-04-19T17:19:08.596Z,83.72
2023-04-19T17:24:08.511Z,83.25
2023-04-19T17:29:08.464Z,83.99
2023-04-19T17:34:08.389Z,83.72
2023-04-19T17:39:08.339Z,83.70
2023-04-19T17:44:08.251Z,83.58
2023-04-19T17:49:08.186Z,83.99
2023-04-19T17:54:08.145Z,83.99
2023-04-19T17:59:08.911Z,82.86
2023-04-19T18:04:08.148Z,84.26
2023-04-19T18:09:07.942Z,81.34
2023-04-19T18:14:07.876Z,79.38
2023-04-19T18:19:07.781Z,81.18
2023-04-19T18:24:07.744Z,79.98
2023-04-19T18:29:07.674Z,85.06
2023-04-19T18:34:07.635Z,80.80
2023-04-19T18:39:07.542Z,83.62
2023-04-19T18:44:34.591Z,84.44
2023-04-19T18:49:08.377Z,84.48
2023-04-19T18:54:07.378Z,86.27
2023-04-19T18:59:07.302Z,89.15
2023-04-19T19:04:31.561Z,91.00
2023-04-19T19:09:08.200Z,89.97
2023-04-19T19:14:07.116Z,88.12
2023-04-19T19:19:07.007Z,88.68
2023-04-19T19:24:06.940Z,90.16
2023-04-19T19:29:06.884Z,90.88
2023-04-19T19:34:22.677Z,90.88
2023-04-19T19:39:07.769Z,91.09
2023-04-19T19:44:06.703Z,89.75
2023-04-19T19:49:06.752Z,90.31
2023-04-19T19:54:06.526Z,91.64
2023-04-19T19:59:06.540Z,91.75
2023-04-19T20:04:06.590Z,91.44
2023-04-19T20:09:06.367Z,91.79
2023-04-19T20:14:06.286Z,92.31
2023-04-19T20:19:06.219Z,91.89
2023-04-19T20:24:06.139Z,91.07
2023-04-19T20:29:06.066Z,91.58
2023-04-19T20:34:06.025Z,92.35
2023-04-19T20:39:06.722Z,93.28
2023-04-19T20:44:05.886Z,93.49
2023-04-19T20:49:06.420Z,94.00
2023-04-19T20:54:06.070Z,93.69
2023-04-19T20:59:05.687Z,94.17
2023-04-19T21:04:05.770Z,94.06
2023-04-19T21:09:05.583Z,94.06
2023-04-19T21:14:05.563Z,93.85
2023-04-19T21:19:05.443Z,94.06
2023-04-19T21:24:05.386Z,94.31
2023-04-19T21:29:05.301Z,94.00
2023-04-19T21:34:05.344Z,93.38
2023-04-19T21:39:05.188Z,93.07
2023-04-19T21:44:05.370Z,93.53
2023-04-19T21:49:05.221Z,93.22
2023-04-19T21:54:04.981Z,94.04
2023-04-19T21:59:04.958Z,94.56
2023-04-19T22:04:05.312Z,94.77
2023-04-19T22:09:04.771Z,94.35
2023-04-19T22:14:04.797Z,94.25
2023-04-19T22:19:04.725Z,94.25
2023-04-19T22:24:04.633Z,94.15
2023-04-19T22:29:04.564Z,94.97
2023-04-19T22:34:04.459Z,94.77
2023-04-19T22:39:04.385Z,94.46
2023-04-19T22:44:04.319Z,94.04
2023-04-19T22:49:04.268Z,93.53
2023-04-19T22:54:04.251Z,93.78
2023-04-19T22:59:04.123Z,93.47
2023-04-19T23:04:04.145Z,93.68
2023-04-19T23:09:03.972Z,94.60
2023-04-19T23:14:03.930Z,92.64
2023-04-19T23:19:03.938Z,92.33
2023-04-19T23:24:03.769Z,91.61
2023-04-19T23:29:03.694Z,92.85
2023-04-19T23:34:03.648Z,93.26
2023-04-19T23:39:03.568Z,91.30
2023-04-19T23:44:03.504Z,91.50
2023-04-19T23:49:03.428Z,92.48
2023-04-19T23:54:03.425Z,92.48
2023-04-19T23:59:03.304Z,93.62
